sensor_id;sensor_type;location;lat;lon;timestamp;P1;durP1;ratioP1;P2;durP2;ratioP2
57395;SDS011;43222;52.912;6.940;2022-12-05T00:00:32;33.83;;;20.58;;
57395;SDS011;43222;52.912;6.940;2022-12-05T00:03:02;34.05;;;20.65;;
57395;SDS011;43222;52.912;6.940;2022-12-05T00:05:28;34.30;;;20.27;;
57395;SDS011;43222;52.912;6.940;2022-12-05T00:07:54;35.92;;;21.75;;
57395;SDS011;43222;52.912;6.940;2022-12-05T00:10:20;33.40;;;20.55;;
57395;SDS011;43222;52.912;6.940;2022-12-05T00:12:46;33.05;;;19.60;;
57395;SDS011;43222;52.912;6.940;2022-12-05T00:15:12;33.47;;;19.75;;
57395;SDS011;43222;52.912;6.940;2022-12-05T00:17:39;35.17;;;21.90;;
57395;SDS011;43222;52.912;6.940;2022-12-05T00:20:05;34.97;;;22.00;;
57395;SDS011;43222;52.912;6.940;2022-12-05T00:22:34;33.40;;;21.75;;
57395;SDS011;43222;52.912;6.940;2022-12-05T00:25:00;28.40;;;18.10;;
57395;SDS011;43222;52.912;6.940;2022-12-05T00:27:27;34.40;;;21.27;;
57395;SDS011;43222;52.912;6.940;2022-12-05T00:29:53;35.88;;;22.25;;
57395;SDS011;43222;52.912;6.940;2022-12-05T00:32:19;33.90;;;21.73;;
57395;SDS011;43222;52.912;6.940;2022-12-05T00:34:45;33.95;;;20.10;;
57395;SDS011;43222;52.912;6.940;2022-12-05T00:37:11;29.00;;;18.70;;
57395;SDS011;43222;52.912;6.940;2022-12-05T00:39:40;35.83;;;21.58;;
57395;SDS011;43222;52.912;6.940;2022-12-05T00:42:06;34.35;;;22.08;;
57395;SDS011;43222;52.912;6.940;2022-12-05T00:44:32;35.97;;;22.45;;
57395;SDS011;43222;52.912;6.940;2022-12-05T00:46:58;35.55;;;21.70;;
57395;SDS011;43222;52.912;6.940;2022-12-05T00:49:24;35.35;;;22.00;;
57395;SDS011;43222;52.912;6.940;2022-12-05T00:51:50;34.28;;;20.95;;
57395;SDS011;43222;52.912;6.940;2022-12-05T00:54:16;35.25;;;23.05;;
57395;SDS011;43222;52.912;6.940;2022-12-05T00:56:43;32.70;;;20.92;;
57395;SDS011;43222;52.912;6.940;2022-12-05T00:59:13;37.30;;;21.48;;
57395;SDS011;43222;52.912;6.940;2022-12-05T01:01:41;37.60;;;22.65;;
57395;SDS011;43222;52.912;6.940;2022-12-05T01:04:11;37.15;;;22.58;;
57395;SDS011;43222;52.912;6.940;2022-12-05T01:06:38;36.83;;;22.75;;
57395;SDS011;43222;52.912;6.940;2022-12-05T01:09:05;36.42;;;23.98;;
57395;SDS011;43222;52.912;6.940;2022-12-05T01:11:31;35.67;;;23.40;;
57395;SDS011;43222;52.912;6.940;2022-12-05T01:13:57;37.85;;;22.92;;
57395;SDS011;43222;52.912;6.940;2022-12-05T01:16:25;36.92;;;23.25;;
57395;SDS011;43222;52.912;6.940;2022-12-05T01:18:51;41.17;;;25.33;;
57395;SDS011;43222;52.912;6.940;2022-12-05T01:21:18;37.22;;;23.35;;
57395;SDS011;43222;52.912;6.940;2022-12-05T01:23:44;39.08;;;23.10;;
57395;SDS011;43222;52.912;6.940;2022-12-05T01:26:11;37.55;;;23.50;;
57395;SDS011;43222;52.912;6.940;2022-12-05T01:28:37;41.35;;;23.40;;
57395;SDS011;43222;52.912;6.940;2022-12-05T01:31:05;36.55;;;23.35;;
57395;SDS011;43222;52.912;6.940;2022-12-05T01:33:31;40.42;;;24.60;;
57395;SDS011;43222;52.912;6.940;2022-12-05T01:36:00;38.05;;;23.50;;
57395;SDS011;43222;52.912;6.940;2022-12-05T01:38:26;38.42;;;23.90;;
57395;SDS011;43222;52.912;6.940;2022-12-05T01:41:02;35.72;;;23.00;;
57395;SDS011;43222;52.912;6.940;2022-12-05T01:43:29;38.53;;;22.88;;
57395;SDS011;43222;52.912;6.940;2022-12-05T01:45:55;42.38;;;25.00;;
57395;SDS011;43222;52.912;6.940;2022-12-05T01:48:22;42.08;;;24.83;;
57395;SDS011;43222;52.912;6.940;2022-12-05T01:50:50;39.35;;;23.52;;
57395;SDS011;43222;52.912;6.940;2022-12-05T01:53:16;43.90;;;25.55;;
57395;SDS011;43222;52.912;6.940;2022-12-05T01:55:43;43.35;;;25.55;;
57395;SDS011;43222;52.912;6.940;2022-12-05T01:58:10;44.28;;;26.00;;
57395;SDS011;43222;52.912;6.940;2022-12-05T02:00:36;47.60;;;27.02;;
57395;SDS011;43222;52.912;6.940;2022-12-05T02:03:07;47.90;;;27.10;;
57395;SDS011;43222;52.912;6.940;2022-12-05T02:05:35;44.67;;;26.42;;
57395;SDS011;43222;52.912;6.940;2022-12-05T02:08:02;46.05;;;27.40;;
57395;SDS011;43222;52.912;6.940;2022-12-05T02:10:30;45.30;;;23.65;;
57395;SDS011;43222;52.912;6.940;2022-12-05T02:13:00;47.15;;;27.25;;
57395;SDS011;43222;52.912;6.940;2022-12-05T02:15:42;54.80;;;28.67;;
57395;SDS011;43222;52.912;6.940;2022-12-05T02:31:40;53.35;;;29.20;;
57395;SDS011;43222;52.912;6.940;2022-12-05T02:34:25;47.90;;;24.88;;
57395;SDS011;43222;52.912;6.940;2022-12-05T02:36:56;55.33;;;30.15;;
57395;SDS011;43222;52.912;6.940;2022-12-05T02:39:26;51.40;;;26.55;;
57395;SDS011;43222;52.912;6.940;2022-12-05T02:41:59;48.88;;;28.05;;
57395;SDS011;43222;52.912;6.940;2022-12-05T02:44:35;47.05;;;25.27;;
57395;SDS011;43222;52.912;6.940;2022-12-05T02:47:05;49.25;;;25.27;;
57395;SDS011;43222;52.912;6.940;2022-12-05T02:49:33;51.15;;;28.30;;
57395;SDS011;43222;52.912;6.940;2022-12-05T02:52:01;48.47;;;27.73;;
57395;SDS011;43222;52.912;6.940;2022-12-05T02:54:32;50.00;;;29.33;;
57395;SDS011;43222;52.912;6.940;2022-12-05T02:57:00;49.03;;;27.83;;
57395;SDS011;43222;52.912;6.940;2022-12-05T02:59:26;45.80;;;25.73;;
57395;SDS011;43222;52.912;6.940;2022-12-05T03:01:53;52.25;;;27.58;;
57395;SDS011;43222;52.912;6.940;2022-12-05T03:04:20;52.05;;;28.73;;
57395;SDS011;43222;52.912;6.940;2022-12-05T03:06:51;48.90;;;24.73;;
57395;SDS011;43222;52.912;6.940;2022-12-05T03:09:25;50.08;;;28.63;;
57395;SDS011;43222;52.912;6.940;2022-12-05T03:12:02;48.85;;;27.23;;
57395;SDS011;43222;52.912;6.940;2022-12-05T03:14:32;46.55;;;27.38;;
57395;SDS011;43222;52.912;6.940;2022-12-05T03:17:00;50.72;;;27.45;;
57395;SDS011;43222;52.912;6.940;2022-12-05T03:19:43;46.47;;;24.20;;
57395;SDS011;43222;52.912;6.940;2022-12-05T03:22:19;49.63;;;27.38;;
57395;SDS011;43222;52.912;6.940;2022-12-05T03:24:48;47.00;;;26.73;;
57395;SDS011;43222;52.912;6.940;2022-12-05T03:27:25;52.60;;;27.95;;
57395;SDS011;43222;52.912;6.940;2022-12-05T03:29:54;52.53;;;28.52;;
57395;SDS011;43222;52.912;6.940;2022-12-05T03:32:26;50.80;;;27.45;;
57395;SDS011;43222;52.912;6.940;2022-12-05T03:37:53;50.88;;;25.50;;
57395;SDS011;43222;52.912;6.940;2022-12-05T03:42:59;46.75;;;23.90;;
57395;SDS011;43222;52.912;6.940;2022-12-05T03:45:29;43.00;;;24.45;;
57395;SDS011;43222;52.912;6.940;2022-12-05T03:50:32;48.28;;;25.40;;
57395;SDS011;43222;52.912;6.940;2022-12-05T03:53:04;45.05;;;23.00;;
57395;SDS011;43222;52.912;6.940;2022-12-05T03:55:32;39.35;;;22.63;;
57395;SDS011;43222;52.912;6.940;2022-12-05T03:58:01;42.60;;;22.55;;
57395;SDS011;43222;52.912;6.940;2022-12-05T04:00:29;45.88;;;24.35;;
57395;SDS011;43222;52.912;6.940;2022-12-05T04:02:58;44.08;;;23.42;;
57395;SDS011;43222;52.912;6.940;2022-12-05T04:08:03;40.88;;;21.92;;
57395;SDS011;43222;52.912;6.940;2022-12-05T04:10:32;38.25;;;19.77;;
57395;SDS011;43222;52.912;6.940;2022-12-05T04:13:12;40.90;;;21.85;;
57395;SDS011;43222;52.912;6.940;2022-12-05T04:15:47;39.92;;;22.33;;
57395;SDS011;43222;52.912;6.940;2022-12-05T04:18:33;36.78;;;21.17;;
57395;SDS011;43222;52.912;6.940;2022-12-05T04:21:02;33.28;;;19.77;;
57395;SDS011;43222;52.912;6.940;2022-12-05T04:23:47;37.92;;;21.58;;
57395;SDS011;43222;52.912;6.940;2022-12-05T04:26:33;35.08;;;21.00;;
57395;SDS011;43222;52.912;6.940;2022-12-05T04:29:11;33.45;;;19.88;;
57395;SDS011;43222;52.912;6.940;2022-12-05T04:31:40;32.60;;;20.20;;
57395;SDS011;43222;52.912;6.940;2022-12-05T04:34:07;33.55;;;20.38;;
57395;SDS011;43222;52.912;6.940;2022-12-05T04:36:42;31.55;;;19.38;;
57395;SDS011;43222;52.912;6.940;2022-12-05T04:39:11;31.23;;;18.98;;
57395;SDS011;43222;52.912;6.940;2022-12-05T04:41:46;35.05;;;19.70;;
57395;SDS011;43222;52.912;6.940;2022-12-05T04:44:15;31.75;;;19.77;;
57395;SDS011;43222;52.912;6.940;2022-12-05T04:46:42;35.75;;;21.45;;
57395;SDS011;43222;52.912;6.940;2022-12-05T04:49:10;35.22;;;20.92;;
57395;SDS011;43222;52.912;6.940;2022-12-05T04:51:37;31.88;;;18.75;;
57395;SDS011;43222;52.912;6.940;2022-12-05T04:54:15;33.78;;;20.70;;
57395;SDS011;43222;52.912;6.940;2022-12-05T04:56:44;37.05;;;21.58;;
57395;SDS011;43222;52.912;6.940;2022-12-05T04:59:13;35.05;;;21.63;;
57395;SDS011;43222;52.912;6.940;2022-12-05T05:01:44;36.75;;;21.38;;
57395;SDS011;43222;52.912;6.940;2022-12-05T05:04:21;37.97;;;21.67;;
57395;SDS011;43222;52.912;6.940;2022-12-05T05:06:50;33.78;;;18.70;;
57395;SDS011;43222;52.912;6.940;2022-12-05T05:09:16;31.35;;;17.80;;
57395;SDS011;43222;52.912;6.940;2022-12-05T05:11:42;37.30;;;20.38;;
57395;SDS011;43222;52.912;6.940;2022-12-05T05:14:08;31.83;;;18.73;;
57395;SDS011;43222;52.912;6.940;2022-12-05T05:16:37;31.23;;;19.65;;
57395;SDS011;43222;52.912;6.940;2022-12-05T05:19:03;34.30;;;18.92;;
57395;SDS011;43222;52.912;6.940;2022-12-05T05:21:34;34.13;;;19.58;;
57395;SDS011;43222;52.912;6.940;2022-12-05T05:24:01;29.88;;;17.77;;
57395;SDS011;43222;52.912;6.940;2022-12-05T05:26:28;29.58;;;19.48;;
57395;SDS011;43222;52.912;6.940;2022-12-05T05:28:55;33.10;;;19.10;;
57395;SDS011;43222;52.912;6.940;2022-12-05T05:31:22;30.50;;;17.98;;
57395;SDS011;43222;52.912;6.940;2022-12-05T05:33:48;33.42;;;19.27;;
57395;SDS011;43222;52.912;6.940;2022-12-05T05:36:15;27.35;;;16.10;;
57395;SDS011;43222;52.912;6.940;2022-12-05T05:38:46;31.80;;;19.73;;
57395;SDS011;43222;52.912;6.940;2022-12-05T05:41:13;34.95;;;19.10;;
57395;SDS011;43222;52.912;6.940;2022-12-05T05:43:39;30.60;;;19.00;;
57395;SDS011;43222;52.912;6.940;2022-12-05T05:46:06;29.05;;;17.90;;
57395;SDS011;43222;52.912;6.940;2022-12-05T05:48:32;29.83;;;17.55;;
57395;SDS011;43222;52.912;6.940;2022-12-05T05:50:58;28.90;;;18.65;;
57395;SDS011;43222;52.912;6.940;2022-12-05T05:53:25;28.55;;;18.17;;
57395;SDS011;43222;52.912;6.940;2022-12-05T05:55:51;29.80;;;17.00;;
57395;SDS011;43222;52.912;6.940;2022-12-05T05:58:17;27.23;;;15.95;;
57395;SDS011;43222;52.912;6.940;2022-12-05T06:00:43;24.65;;;15.63;;
57395;SDS011;43222;52.912;6.940;2022-12-05T06:03:09;20.70;;;13.10;;
57395;SDS011;43222;52.912;6.940;2022-12-05T06:05:35;21.80;;;13.85;;
57395;SDS011;43222;52.912;6.940;2022-12-05T06:08:01;16.85;;;11.60;;
57395;SDS011;43222;52.912;6.940;2022-12-05T06:10:30;19.10;;;12.75;;
57395;SDS011;43222;52.912;6.940;2022-12-05T06:12:56;18.13;;;11.35;;
57395;SDS011;43222;52.912;6.940;2022-12-05T06:15:22;16.45;;;11.38;;
57395;SDS011;43222;52.912;6.940;2022-12-05T06:17:49;18.77;;;11.65;;
57395;SDS011;43222;52.912;6.940;2022-12-05T06:20:15;19.60;;;12.43;;
57395;SDS011;43222;52.912;6.940;2022-12-05T06:22:41;19.10;;;11.38;;
57395;SDS011;43222;52.912;6.940;2022-12-05T06:25:07;16.98;;;11.60;;
57395;SDS011;43222;52.912;6.940;2022-12-05T06:27:33;18.92;;;11.52;;
57395;SDS011;43222;52.912;6.940;2022-12-05T06:29:59;16.80;;;10.43;;
57395;SDS011;43222;52.912;6.940;2022-12-05T06:32:26;19.40;;;12.70;;
57395;SDS011;43222;52.912;6.940;2022-12-05T06:34:53;17.83;;;11.80;;
57395;SDS011;43222;52.912;6.940;2022-12-05T06:37:19;21.35;;;12.68;;
57395;SDS011;43222;52.912;6.940;2022-12-05T06:39:45;16.75;;;11.27;;
57395;SDS011;43222;52.912;6.940;2022-12-05T06:42:11;19.85;;;12.57;;
57395;SDS011;43222;52.912;6.940;2022-12-05T06:44:37;21.50;;;11.57;;
57395;SDS011;43222;52.912;6.940;2022-12-05T06:47:03;18.42;;;10.90;;
57395;SDS011;43222;52.912;6.940;2022-12-05T06:49:29;15.57;;;8.95;;
57395;SDS011;43222;52.912;6.940;2022-12-05T06:52:00;12.80;;;8.60;;
57395;SDS011;43222;52.912;6.940;2022-12-05T06:54:26;13.15;;;8.40;;
57395;SDS011;43222;52.912;6.940;2022-12-05T06:56:52;12.27;;;7.65;;
57395;SDS011;43222;52.912;6.940;2022-12-05T06:59:18;9.98;;;6.85;;
57395;SDS011;43222;52.912;6.940;2022-12-05T07:01:44;14.25;;;8.07;;
57395;SDS011;43222;52.912;6.940;2022-12-05T07:06:40;10.70;;;7.22;;
57395;SDS011;43222;52.912;6.940;2022-12-05T07:09:06;12.50;;;7.53;;
57395;SDS011;43222;52.912;6.940;2022-12-05T07:11:33;14.20;;;8.52;;
57395;SDS011;43222;52.912;6.940;2022-12-05T07:13:59;12.35;;;7.57;;
57395;SDS011;43222;52.912;6.940;2022-12-05T07:16:25;12.95;;;8.23;;
57395;SDS011;43222;52.912;6.940;2022-12-05T07:18:51;13.60;;;8.98;;
57395;SDS011;43222;52.912;6.940;2022-12-05T07:21:17;13.98;;;8.65;;
57395;SDS011;43222;52.912;6.940;2022-12-05T07:23:46;11.63;;;6.80;;
57395;SDS011;43222;52.912;6.940;2022-12-05T07:26:14;15.77;;;9.25;;
57395;SDS011;43222;52.912;6.940;2022-12-05T07:28:40;11.68;;;6.85;;
57395;SDS011;43222;52.912;6.940;2022-12-05T07:31:08;13.00;;;8.07;;
57395;SDS011;43222;52.912;6.940;2022-12-05T07:33:34;12.10;;;6.30;;
57395;SDS011;43222;52.912;6.940;2022-12-05T07:36:04;11.70;;;7.45;;
57395;SDS011;43222;52.912;6.940;2022-12-05T07:38:31;12.40;;;7.93;;
57395;SDS011;43222;52.912;6.940;2022-12-05T07:40:57;12.40;;;6.70;;
57395;SDS011;43222;52.912;6.940;2022-12-05T07:43:24;14.48;;;7.90;;
57395;SDS011;43222;52.912;6.940;2022-12-05T07:45:50;12.88;;;7.32;;
57395;SDS011;43222;52.912;6.940;2022-12-05T07:48:16;14.20;;;8.60;;
57395;SDS011;43222;52.912;6.940;2022-12-05T07:50:42;13.60;;;7.55;;
57395;SDS011;43222;52.912;6.940;2022-12-05T07:53:08;13.02;;;7.20;;
57395;SDS011;43222;52.912;6.940;2022-12-05T07:55:36;13.63;;;6.47;;
57395;SDS011;43222;52.912;6.940;2022-12-05T07:58:02;11.48;;;7.22;;
57395;SDS011;43222;52.912;6.940;2022-12-05T08:00:28;12.85;;;7.97;;
57395;SDS011;43222;52.912;6.940;2022-12-05T08:02:54;13.90;;;8.43;;
57395;SDS011;43222;52.912;6.940;2022-12-05T08:05:20;10.88;;;7.05;;
57395;SDS011;43222;52.912;6.940;2022-12-05T08:07:46;12.50;;;8.13;;
57395;SDS011;43222;52.912;6.940;2022-12-05T08:10:12;12.00;;;8.40;;
57395;SDS011;43222;52.912;6.940;2022-12-05T08:12:38;14.68;;;8.95;;
57395;SDS011;43222;52.912;6.940;2022-12-05T08:15:05;14.10;;;9.10;;
57395;SDS011;43222;52.912;6.940;2022-12-05T08:17:31;15.90;;;8.70;;
57395;SDS011;43222;52.912;6.940;2022-12-05T08:19:57;12.65;;;8.32;;
57395;SDS011;43222;52.912;6.940;2022-12-05T08:22:24;13.77;;;9.00;;
57395;SDS011;43222;52.912;6.940;2022-12-05T08:24:50;15.27;;;7.95;;
57395;SDS011;43222;52.912;6.940;2022-12-05T08:27:16;13.23;;;8.38;;
57395;SDS011;43222;52.912;6.940;2022-12-05T08:29:42;17.40;;;9.63;;
57395;SDS011;43222;52.912;6.940;2022-12-05T08:32:08;14.82;;;9.30;;
57395;SDS011;43222;52.912;6.940;2022-12-05T08:34:34;15.20;;;8.50;;
57395;SDS011;43222;52.912;6.940;2022-12-05T08:37:01;14.15;;;7.85;;
57395;SDS011;43222;52.912;6.940;2022-12-05T08:39:27;16.70;;;9.15;;
57395;SDS011;43222;52.912;6.940;2022-12-05T08:41:53;15.90;;;9.15;;
57395;SDS011;43222;52.912;6.940;2022-12-05T08:44:19;12.10;;;6.15;;
57395;SDS011;43222;52.912;6.940;2022-12-05T08:46:46;16.02;;;9.27;;
57395;SDS011;43222;52.912;6.940;2022-12-05T08:49:13;14.07;;;8.52;;
57395;SDS011;43222;52.912;6.940;2022-12-05T08:51:39;13.30;;;8.20;;
57395;SDS011;43222;52.912;6.940;2022-12-05T08:54:06;14.90;;;8.10;;
57395;SDS011;43222;52.912;6.940;2022-12-05T08:56:32;14.00;;;7.35;;
57395;SDS011;43222;52.912;6.940;2022-12-05T08:58:58;15.68;;;8.65;;
57395;SDS011;43222;52.912;6.940;2022-12-05T09:01:26;16.25;;;9.63;;
57395;SDS011;43222;52.912;6.940;2022-12-05T09:03:56;12.25;;;7.75;;
57395;SDS011;43222;52.912;6.940;2022-12-05T09:06:24;15.40;;;8.38;;
57395;SDS011;43222;52.912;6.940;2022-12-05T09:08:55;16.95;;;10.13;;
57395;SDS011;43222;52.912;6.940;2022-12-05T09:11:22;17.63;;;10.18;;
57395;SDS011;43222;52.912;6.940;2022-12-05T09:13:48;15.35;;;9.02;;
57395;SDS011;43222;52.912;6.940;2022-12-05T09:16:16;13.57;;;7.45;;
57395;SDS011;43222;52.912;6.940;2022-12-05T09:18:43;11.43;;;6.70;;
57395;SDS011;43222;52.912;6.940;2022-12-05T09:23:35;13.82;;;7.97;;
57395;SDS011;43222;52.912;6.940;2022-12-05T09:26:04;16.33;;;8.32;;
57395;SDS011;43222;52.912;6.940;2022-12-05T09:28:30;12.55;;;8.13;;
57395;SDS011;43222;52.912;6.940;2022-12-05T09:30:58;15.23;;;9.93;;
57395;SDS011;43222;52.912;6.940;2022-12-05T09:33:25;16.88;;;8.88;;
57395;SDS011;43222;52.912;6.940;2022-12-05T09:35:51;13.88;;;7.95;;
57395;SDS011;43222;52.912;6.940;2022-12-05T09:38:17;14.52;;;8.75;;
57395;SDS011;43222;52.912;6.940;2022-12-05T09:40:43;16.65;;;8.82;;
57395;SDS011;43222;52.912;6.940;2022-12-05T09:43:20;15.23;;;9.35;;
57395;SDS011;43222;52.912;6.940;2022-12-05T09:45:53;17.83;;;9.88;;
57395;SDS011;43222;52.912;6.940;2022-12-05T09:48:21;14.80;;;7.85;;
57395;SDS011;43222;52.912;6.940;2022-12-05T09:50:48;13.52;;;8.85;;
57395;SDS011;43222;52.912;6.940;2022-12-05T09:55:50;16.45;;;8.13;;
57395;SDS011;43222;52.912;6.940;2022-12-05T09:58:25;16.38;;;9.82;;
57395;SDS011;43222;52.912;6.940;2022-12-05T10:01:00;17.77;;;9.80;;
57395;SDS011;43222;52.912;6.940;2022-12-05T10:03:44;12.73;;;7.40;;
57395;SDS011;43222;52.912;6.940;2022-12-05T10:11:04;18.52;;;8.65;;
57395;SDS011;43222;52.912;6.940;2022-12-05T10:16:02;16.95;;;7.93;;
57395;SDS011;43222;52.912;6.940;2022-12-05T10:18:42;16.55;;;8.27;;
57395;SDS011;43222;52.912;6.940;2022-12-05T10:21:19;17.13;;;9.90;;
57395;SDS011;43222;52.912;6.940;2022-12-05T10:26:13;19.52;;;8.98;;
57395;SDS011;43222;52.912;6.940;2022-12-05T10:28:45;14.48;;;8.35;;
57395;SDS011;43222;52.912;6.940;2022-12-05T10:31:15;16.55;;;8.80;;
57395;SDS011;43222;52.912;6.940;2022-12-05T10:33:44;14.15;;;8.95;;
57395;SDS011;43222;52.912;6.940;2022-12-05T10:36:12;14.43;;;6.60;;
57395;SDS011;43222;52.912;6.940;2022-12-05T10:38:40;16.17;;;9.57;;
57395;SDS011;43222;52.912;6.940;2022-12-05T10:41:07;19.13;;;10.32;;
57395;SDS011;43222;52.912;6.940;2022-12-05T10:43:33;17.38;;;10.35;;
57395;SDS011;43222;52.912;6.940;2022-12-05T10:46:02;19.15;;;10.70;;
57395;SDS011;43222;52.912;6.940;2022-12-05T10:48:28;18.30;;;9.25;;
57395;SDS011;43222;52.912;6.940;2022-12-05T10:50:58;18.10;;;10.02;;
57395;SDS011;43222;52.912;6.940;2022-12-05T10:53:26;16.35;;;9.23;;
57395;SDS011;43222;52.912;6.940;2022-12-05T10:55:53;18.08;;;8.10;;
57395;SDS011;43222;52.912;6.940;2022-12-05T10:58:26;19.25;;;9.52;;
57395;SDS011;43222;52.912;6.940;2022-12-05T11:00:54;20.73;;;9.20;;
57395;SDS011;43222;52.912;6.940;2022-12-05T11:03:28;14.38;;;7.57;;
57395;SDS011;43222;52.912;6.940;2022-12-05T11:05:55;14.82;;;7.60;;
57395;SDS011;43222;52.912;6.940;2022-12-05T11:08:23;13.60;;;8.30;;
57395;SDS011;43222;52.912;6.940;2022-12-05T11:10:57;16.65;;;10.02;;
57395;SDS011;43222;52.912;6.940;2022-12-05T11:13:25;16.42;;;8.52;;
57395;SDS011;43222;52.912;6.940;2022-12-05T11:15:51;15.63;;;9.05;;
57395;SDS011;43222;52.912;6.940;2022-12-05T11:18:21;18.20;;;10.13;;
57395;SDS011;43222;52.912;6.940;2022-12-05T11:20:50;12.13;;;6.70;;
57395;SDS011;43222;52.912;6.940;2022-12-05T11:23:20;18.85;;;9.90;;
57395;SDS011;43222;52.912;6.940;2022-12-05T11:25:47;16.55;;;9.35;;
57395;SDS011;43222;52.912;6.940;2022-12-05T11:31:02;18.88;;;9.52;;
57395;SDS011;43222;52.912;6.940;2022-12-05T11:33:29;14.20;;;7.13;;
57395;SDS011;43222;52.912;6.940;2022-12-05T11:35:58;14.95;;;8.63;;
57395;SDS011;43222;52.912;6.940;2022-12-05T11:38:26;16.23;;;9.25;;
57395;SDS011;43222;52.912;6.940;2022-12-05T11:41:07;19.20;;;9.50;;
57395;SDS011;43222;52.912;6.940;2022-12-05T11:53:39;15.13;;;7.72;;
57395;SDS011;43222;52.912;6.940;2022-12-05T11:56:21;15.02;;;7.93;;
57395;SDS011;43222;52.912;6.940;2022-12-05T12:06:48;14.20;;;7.25;;
57395;SDS011;43222;52.912;6.940;2022-12-05T12:09:28;10.18;;;5.95;;
57395;SDS011;43222;52.912;6.940;2022-12-05T12:11:58;9.90;;;5.47;;
57395;SDS011;43222;52.912;6.940;2022-12-05T12:22:44;11.50;;;5.85;;
57395;SDS011;43222;52.912;6.940;2022-12-05T12:25:26;10.18;;;5.28;;
57395;SDS011;43222;52.912;6.940;2022-12-05T12:28:00;10.73;;;5.63;;
57395;SDS011;43222;52.912;6.940;2022-12-05T12:35:28;14.57;;;5.68;;
57395;SDS011;43222;52.912;6.940;2022-12-05T12:40:34;9.65;;;5.18;;
57395;SDS011;43222;52.912;6.940;2022-12-05T12:43:15;7.85;;;4.57;;
57395;SDS011;43222;52.912;6.940;2022-12-05T12:48:15;8.75;;;4.47;;
57395;SDS011;43222;52.912;6.940;2022-12-05T12:50:44;9.18;;;5.00;;
57395;SDS011;43222;52.912;6.940;2022-12-05T12:53:28;9.05;;;5.25;;
57395;SDS011;43222;52.912;6.940;2022-12-05T13:01:00;8.50;;;4.35;;
57395;SDS011;43222;52.912;6.940;2022-12-05T13:06:15;8.52;;;4.82;;
57395;SDS011;43222;52.912;6.940;2022-12-05T13:08:56;10.10;;;4.82;;
57395;SDS011;43222;52.912;6.940;2022-12-05T13:11:26;9.05;;;4.80;;
57395;SDS011;43222;52.912;6.940;2022-12-05T13:13:55;7.40;;;4.45;;
57395;SDS011;43222;52.912;6.940;2022-12-05T13:16:34;11.30;;;5.40;;
57395;SDS011;43222;52.912;6.940;2022-12-05T13:19:04;11.18;;;4.97;;
57395;SDS011;43222;52.912;6.940;2022-12-05T13:21:31;8.75;;;4.60;;
57395;SDS011;43222;52.912;6.940;2022-12-05T13:23:58;10.20;;;4.60;;
57395;SDS011;43222;52.912;6.940;2022-12-05T13:26:27;8.85;;;4.60;;
57395;SDS011;43222;52.912;6.940;2022-12-05T13:28:54;11.35;;;5.00;;
57395;SDS011;43222;52.912;6.940;2022-12-05T13:31:34;7.43;;;4.60;;
57395;SDS011;43222;52.912;6.940;2022-12-05T13:34:01;9.20;;;4.35;;
57395;SDS011;43222;52.912;6.940;2022-12-05T13:36:27;8.27;;;4.80;;
57395;SDS011;43222;52.912;6.940;2022-12-05T13:39:17;9.10;;;4.57;;
57395;SDS011;43222;52.912;6.940;2022-12-05T13:42:02;9.83;;;3.50;;
57395;SDS011;43222;52.912;6.940;2022-12-05T13:47:05;7.75;;;4.13;;
57395;SDS011;43222;52.912;6.940;2022-12-05T13:49:42;15.63;;;4.55;;
57395;SDS011;43222;52.912;6.940;2022-12-05T13:52:14;10.02;;;4.13;;
57395;SDS011;43222;52.912;6.940;2022-12-05T13:54:55;7.60;;;3.13;;
57395;SDS011;43222;52.912;6.940;2022-12-05T14:05:50;8.77;;;4.22;;
57395;SDS011;43222;52.912;6.940;2022-12-05T14:07:53;10.80;;;4.82;;
57395;SDS011;43222;52.912;6.940;2022-12-05T14:11:05;12.43;;;5.05;;
57395;SDS011;43222;52.912;6.940;2022-12-05T14:15:43;8.90;;;3.88;;
57395;SDS011;43222;52.912;6.940;2022-12-05T14:23:27;8.57;;;3.78;;
57395;SDS011;43222;52.912;6.940;2022-12-05T14:36:51;10.32;;;4.47;;
57395;SDS011;43222;52.912;6.940;2022-12-05T14:39:21;8.10;;;4.13;;
57395;SDS011;43222;52.912;6.940;2022-12-05T14:41:59;11.13;;;4.72;;
57395;SDS011;43222;52.912;6.940;2022-12-05T14:44:29;11.52;;;4.40;;
57395;SDS011;43222;52.912;6.940;2022-12-05T14:46:59;8.77;;;4.10;;
57395;SDS011;43222;52.912;6.940;2022-12-05T14:52:18;6.82;;;3.28;;
57395;SDS011;43222;52.912;6.940;2022-12-05T14:54:44;8.23;;;4.10;;
57395;SDS011;43222;52.912;6.940;2022-12-05T14:59:53;9.70;;;4.38;;
57395;SDS011;43222;52.912;6.940;2022-12-05T15:02:24;9.02;;;4.40;;
57395;SDS011;43222;52.912;6.940;2022-12-05T15:04:54;8.25;;;3.97;;
57395;SDS011;43222;52.912;6.940;2022-12-05T15:07:24;9.75;;;3.70;;
57395;SDS011;43222;52.912;6.940;2022-12-05T15:12:19;9.48;;;3.88;;
57395;SDS011;43222;52.912;6.940;2022-12-05T15:14:55;9.77;;;4.10;;
57395;SDS011;43222;52.912;6.940;2022-12-05T15:17:26;9.07;;;3.97;;
57395;SDS011;43222;52.912;6.940;2022-12-05T15:22:39;9.23;;;4.38;;
57395;SDS011;43222;52.912;6.940;2022-12-05T15:25:19;10.43;;;4.57;;
57395;SDS011;43222;52.912;6.940;2022-12-05T15:27:53;10.87;;;4.70;;
57395;SDS011;43222;52.912;6.940;2022-12-05T15:30:19;9.98;;;4.85;;
57395;SDS011;43222;52.912;6.940;2022-12-05T15:32:45;8.90;;;4.20;;
57395;SDS011;43222;52.912;6.940;2022-12-05T15:35:11;11.48;;;4.57;;
57395;SDS011;43222;52.912;6.940;2022-12-05T15:37:43;9.02;;;4.28;;
57395;SDS011;43222;52.912;6.940;2022-12-05T15:40:13;9.98;;;4.45;;
57395;SDS011;43222;52.912;6.940;2022-12-05T15:42:48;10.73;;;4.20;;
57395;SDS011;43222;52.912;6.940;2022-12-05T15:45:25;11.77;;;4.90;;
57395;SDS011;43222;52.912;6.940;2022-12-05T15:50:36;9.02;;;4.25;;
57395;SDS011;43222;52.912;6.940;2022-12-05T15:55:50;9.45;;;4.40;;
57395;SDS011;43222;52.912;6.940;2022-12-05T15:58:23;10.75;;;4.45;;
57395;SDS011;43222;52.912;6.940;2022-12-05T16:00:51;10.25;;;4.57;;
57395;SDS011;43222;52.912;6.940;2022-12-05T16:03:19;8.70;;;4.22;;
57395;SDS011;43222;52.912;6.940;2022-12-05T16:05:54;8.63;;;4.15;;
57395;SDS011;43222;52.912;6.940;2022-12-05T16:08:20;8.32;;;4.05;;
57395;SDS011;43222;52.912;6.940;2022-12-05T16:10:48;10.25;;;4.78;;
57395;SDS011;43222;52.912;6.940;2022-12-05T16:13:15;9.48;;;4.60;;
57395;SDS011;43222;52.912;6.940;2022-12-05T16:15:44;10.52;;;4.57;;
57395;SDS011;43222;52.912;6.940;2022-12-05T16:18:21;8.50;;;3.92;;
57395;SDS011;43222;52.912;6.940;2022-12-05T16:20:48;9.25;;;4.20;;
57395;SDS011;43222;52.912;6.940;2022-12-05T16:23:35;9.73;;;4.80;;
57395;SDS011;43222;52.912;6.940;2022-12-05T16:26:18;9.48;;;5.47;;
57395;SDS011;43222;52.912;6.940;2022-12-05T16:29:00;12.93;;;5.30;;
57395;SDS011;43222;52.912;6.940;2022-12-05T16:31:30;8.85;;;4.57;;
57395;SDS011;43222;52.912;6.940;2022-12-05T16:34:01;10.55;;;4.80;;
57395;SDS011;43222;52.912;6.940;2022-12-05T16:36:27;9.70;;;4.20;;
57395;SDS011;43222;52.912;6.940;2022-12-05T16:39:03;9.05;;;4.72;;
57395;SDS011;43222;52.912;6.940;2022-12-05T16:41:34;8.73;;;4.93;;
57395;SDS011;43222;52.912;6.940;2022-12-05T16:44:00;9.82;;;5.10;;
57395;SDS011;43222;52.912;6.940;2022-12-05T16:46:40;10.63;;;4.88;;
57395;SDS011;43222;52.912;6.940;2022-12-05T16:51:39;7.80;;;3.60;;
57395;SDS011;43222;52.912;6.940;2022-12-05T16:54:06;10.10;;;5.32;;
57395;SDS011;43222;52.912;6.940;2022-12-05T16:56:32;9.25;;;5.47;;
57395;SDS011;43222;52.912;6.940;2022-12-05T16:59:02;9.57;;;5.82;;